sensor_id;sensor_type;location;lat;lon;timestamp;temperature;humidity
44843;DHT22;31884;52.538;13.820;2024-03-02T00:01:11;8.40;99.90
44843;DHT22;31884;52.538;13.820;2024-03-02T00:03:38;8.40;99.90
44843;DHT22;31884;52.538;13.820;2024-03-02T00:06:04;8.40;99.90
44843;DHT22;31884;52.538;13.820;2024-03-02T00:08:29;8.40;99.90
44843;DHT22;31884;52.538;13.820;2024-03-02T00:10:59;8.40;99.90
44843;DHT22;31884;52.538;13.820;2024-03-02T00:13:25;8.40;99.90
44843;DHT22;31884;52.538;13.820;2024-03-02T00:15:55;8.50;99.90
44843;DHT22;31884;52.538;13.820;2024-03-02T00:18:35;8.40;99.90
44843;DHT22;31884;52.538;13.820;2024-03-02T00:21:01;8.50;99.90
44843;DHT22;31884;52.538;13.820;2024-03-02T00:23:30;8.50;99.90
44843;DHT22;31884;52.538;13.820;2024-03-02T00:25:57;8.50;99.90
44843;DHT22;31884;52.538;13.820;2024-03-02T00:28:29;8.50;99.90
44843;DHT22;31884;52.538;13.820;2024-03-02T00:31:03;8.50;99.90
44843;DHT22;31884;52.538;13.820;2024-03-02T00:33:34;8.50;99.90
44843;DHT22;31884;52.538;13.820;2024-03-02T00:36:02;8.50;99.90
44843;DHT22;31884;52.538;13.820;2024-03-02T00:38:29;8.50;99.90
44843;DHT22;31884;52.538;13.820;2024-03-02T00:40:54;8.50;99.90
44843;DHT22;31884;52.538;13.820;2024-03-02T00:45:49;8.40;99.90
44843;DHT22;31884;52.538;13.820;2024-03-02T00:48:15;8.40;99.90
44843;DHT22;31884;52.538;13.820;2024-03-02T00:50:42;8.50;99.90
44843;DHT22;31884;52.538;13.820;2024-03-02T00:53:11;8.50;99.90
44843;DHT22;31884;52.538;13.820;2024-03-02T00:55:37;8.50;99.90
44843;DHT22;31884;52.538;13.820;2024-03-02T00:58:03;8.50;99.90
44843;DHT22;31884;52.538;13.820;2024-03-02T01:00:29;8.50;99.90
44843;DHT22;31884;52.538;13.820;2024-03-02T01:02:54;8.60;99.90
44843;DHT22;31884;52.538;13.820;2024-03-02T01:05:20;8.50;99.90
44843;DHT22;31884;52.538;13.820;2024-03-02T01:07:45;8.50;99.90
44843;DHT22;31884;52.538;13.820;2024-03-02T01:10:11;8.50;99.90
44843;DHT22;31884;52.538;13.820;2024-03-02T01:12:37;8.60;99.90
44843;DHT22;31884;52.538;13.820;2024-03-02T01:15:02;8.60;99.90
44843;DHT22;31884;52.538;13.820;2024-03-02T01:17:31;8.60;99.90
44843;DHT22;31884;52.538;13.820;2024-03-02T01:19:56;8.60;99.90
44843;DHT22;31884;52.538;13.820;2024-03-02T01:22:23;8.60;99.90
44843;DHT22;31884;52.538;13.820;2024-03-02T01:24:50;8.60;99.90
44843;DHT22;31884;52.538;13.820;2024-03-02T01:27:16;8.60;99.90
44843;DHT22;31884;52.538;13.820;2024-03-02T01:29:41;8.60;99.90
44843;DHT22;31884;52.538;13.820;2024-03-02T01:32:07;8.60;99.90
44843;DHT22;31884;52.538;13.820;2024-03-02T01:34:32;8.60;99.90
44843;DHT22;31884;52.538;13.820;2024-03-02T01:36:58;8.60;99.90
44843;DHT22;31884;52.538;13.820;2024-03-02T01:39:23;8.60;99.90
44843;DHT22;31884;52.538;13.820;2024-03-02T01:41:49;8.60;99.90
44843;DHT22;31884;52.538;13.820;2024-03-02T01:44:14;8.60;99.90
44843;DHT22;31884;52.538;13.820;2024-03-02T01:46:40;8.60;99.90
44843;DHT22;31884;52.538;13.820;2024-03-02T01:49:06;8.50;99.90
44843;DHT22;31884;52.538;13.820;2024-03-02T01:51:31;8.50;99.90
44843;DHT22;31884;52.538;13.820;2024-03-02T01:53:57;8.50;99.90
44843;DHT22;31884;52.538;13.820;2024-03-02T01:56:22;8.40;99.90
44843;DHT22;31884;52.538;13.820;2024-03-02T01:58:48;8.40;99.90
44843;DHT22;31884;52.538;13.820;2024-03-02T02:01:13;8.40;99.90
44843;DHT22;31884;52.538;13.820;2024-03-02T02:03:39;8.40;99.90
44843;DHT22;31884;52.538;13.820;2024-03-02T02:06:06;8.40;99.90
44843;DHT22;31884;52.538;13.820;2024-03-02T02:08:32;8.40;99.90
44843;DHT22;31884;52.538;13.820;2024-03-02T02:10:58;8.40;99.90
44843;DHT22;31884;52.538;13.820;2024-03-02T02:13:23;8.40;99.90
44843;DHT22;31884;52.538;13.820;2024-03-02T02:15:49;8.40;99.90
44843;DHT22;31884;52.538;13.820;2024-03-02T02:18:15;8.40;99.90
44843;DHT22;31884;52.538;13.820;2024-03-02T02:20:41;8.40;99.90
44843;DHT22;31884;52.538;13.820;2024-03-02T02:23:06;8.40;99.90
44843;DHT22;31884;52.538;13.820;2024-03-02T02:25:35;8.50;99.90
44843;DHT22;31884;52.538;13.820;2024-03-02T02:28:00;8.50;99.90
44843;DHT22;31884;52.538;13.820;2024-03-02T02:30:28;8.50;99.90
44843;DHT22;31884;52.538;13.820;2024-03-02T02:32:54;8.50;99.90
44843;DHT22;31884;52.538;13.820;2024-03-02T02:35:20;8.50;99.90
44843;DHT22;31884;52.538;13.820;2024-03-02T02:37:46;8.50;99.90
44843;DHT22;31884;52.538;13.820;2024-03-02T02:40:12;8.50;99.90
44843;DHT22;31884;52.538;13.820;2024-03-02T02:42:38;8.50;99.90
44843;DHT22;31884;52.538;13.820;2024-03-02T02:45:07;8.60;99.90
44843;DHT22;31884;52.538;13.820;2024-03-02T02:47:33;8.60;99.90
44843;DHT22;31884;52.538;13.820;2024-03-02T02:50:01;8.60;99.90
44843;DHT22;31884;52.538;13.820;2024-03-02T02:52:31;8.60;99.90
44843;DHT22;31884;52.538;13.820;2024-03-02T02:54:58;8.60;99.90
44843;DHT22;31884;52.538;13.820;2024-03-02T02:57:24;8.60;99.90
44843;DHT22;31884;52.538;13.820;2024-03-02T02:59:49;8.60;99.90
44843;DHT22;31884;52.538;13.820;2024-03-02T03:02:15;8.60;99.90
44843;DHT22;31884;52.538;13.820;2024-03-02T03:04:40;8.60;99.90
44843;DHT22;31884;52.538;13.820;2024-03-02T03:07:06;8.60;99.90
44843;DHT22;31884;52.538;13.820;2024-03-02T03:09:32;8.60;99.90
44843;DHT22;31884;52.538;13.820;2024-03-02T03:11:57;8.70;99.90
44843;DHT22;31884;52.538;13.820;2024-03-02T03:14:23;8.70;99.90
44843;DHT22;31884;52.538;13.820;2024-03-02T03:16:48;8.70;99.90
44843;DHT22;31884;52.538;13.820;2024-03-02T03:19:14;8.70;99.90
44843;DHT22;31884;52.538;13.820;2024-03-02T03:21:39;8.70;99.90
44843;DHT22;31884;52.538;13.820;2024-03-02T03:24:05;8.70;99.90
44843;DHT22;31884;52.538;13.820;2024-03-02T03:26:30;8.70;99.90
44843;DHT22;31884;52.538;13.820;2024-03-02T03:28:55;8.70;99.90
44843;DHT22;31884;52.538;13.820;2024-03-02T03:31:21;8.70;99.90
44843;DHT22;31884;52.538;13.820;2024-03-02T03:33:46;8.70;99.90
44843;DHT22;31884;52.538;13.820;2024-03-02T03:36:12;8.80;99.90
44843;DHT22;31884;52.538;13.820;2024-03-02T03:38:37;8.80;99.90
44843;DHT22;31884;52.538;13.820;2024-03-02T03:41:03;8.80;99.90
44843;DHT22;31884;52.538;13.820;2024-03-02T03:43:28;8.80;99.90
44843;DHT22;31884;52.538;13.820;2024-03-02T03:45:54;8.80;99.90
44843;DHT22;31884;52.538;13.820;2024-03-02T03:48:20;8.80;99.90
44843;DHT22;31884;52.538;13.820;2024-03-02T03:50:45;8.80;99.90
44843;DHT22;31884;52.538;13.820;2024-03-02T03:53:11;8.80;99.90
44843;DHT22;31884;52.538;13.820;2024-03-02T03:55:36;8.80;99.90
44843;DHT22;31884;52.538;13.820;2024-03-02T03:58:02;8.80;99.90
44843;DHT22;31884;52.538;13.820;2024-03-02T04:00:27;8.80;99.90
44843;DHT22;31884;52.538;13.820;2024-03-02T04:02:53;8.90;99.90
44843;DHT22;31884;52.538;13.820;2024-03-02T04:05:18;8.90;99.90
44843;DHT22;31884;52.538;13.820;2024-03-02T04:07:44;8.90;99.90
44843;DHT22;31884;52.538;13.820;2024-03-02T04:10:10;8.90;99.90
44843;DHT22;31884;52.538;13.820;2024-03-02T04:12:36;8.90;99.90
44843;DHT22;31884;52.538;13.820;2024-03-02T04:15:03;8.90;99.90
44843;DHT22;31884;52.538;13.820;2024-03-02T04:17:30;8.90;99.90
44843;DHT22;31884;52.538;13.820;2024-03-02T04:19:56;8.90;99.90
44843;DHT22;31884;52.538;13.820;2024-03-02T04:22:22;8.90;99.90
44843;DHT22;31884;52.538;13.820;2024-03-02T04:24:47;8.90;99.90
44843;DHT22;31884;52.538;13.820;2024-03-02T04:27:13;8.90;99.90
44843;DHT22;31884;52.538;13.820;2024-03-02T04:29:38;8.90;99.90
44843;DHT22;31884;52.538;13.820;2024-03-02T04:32:04;9.00;99.90
44843;DHT22;31884;52.538;13.820;2024-03-02T04:34:29;8.90;99.90
44843;DHT22;31884;52.538;13.820;2024-03-02T04:36:55;8.90;99.90
44843;DHT22;31884;52.538;13.820;2024-03-02T04:39:21;9.00;99.90
44843;DHT22;31884;52.538;13.820;2024-03-02T04:41:46;9.00;99.90
44843;DHT22;31884;52.538;13.820;2024-03-02T04:44:12;9.00;99.90
44843;DHT22;31884;52.538;13.820;2024-03-02T04:46:37;9.00;99.90
44843;DHT22;31884;52.538;13.820;2024-03-02T04:49:03;9.00;99.90
44843;DHT22;31884;52.538;13.820;2024-03-02T04:51:28;9.00;99.90
44843;DHT22;31884;52.538;13.820;2024-03-02T04:53:54;9.10;99.90
44843;DHT22;31884;52.538;13.820;2024-03-02T04:56:19;9.10;99.90
44843;DHT22;31884;52.538;13.820;2024-03-02T04:59:04;9.10;99.90
44843;DHT22;31884;52.538;13.820;2024-03-02T05:01:30;9.10;99.90
44843;DHT22;31884;52.538;13.820;2024-03-02T05:03:55;9.10;99.90
44843;DHT22;31884;52.538;13.820;2024-03-02T05:06:21;9.10;99.90
44843;DHT22;31884;52.538;13.820;2024-03-02T05:08:48;9.10;99.90
44843;DHT22;31884;52.538;13.820;2024-03-02T05:11:13;9.10;99.90
44843;DHT22;31884;52.538;13.820;2024-03-02T05:14:05;9.10;99.90
44843;DHT22;31884;52.538;13.820;2024-03-02T05:16:35;9.20;99.90
44843;DHT22;31884;52.538;13.820;2024-03-02T05:19:02;9.10;99.90
44843;DHT22;31884;52.538;13.820;2024-03-02T05:21:27;9.10;99.90
44843;DHT22;31884;52.538;13.820;2024-03-02T05:23:52;9.20;99.90
44843;DHT22;31884;52.538;13.820;2024-03-02T05:26:18;9.20;99.90
44843;DHT22;31884;52.538;13.820;2024-03-02T05:28:43;9.20;99.90
44843;DHT22;31884;52.538;13.820;2024-03-02T05:31:15;9.20;99.90
44843;DHT22;31884;52.538;13.820;2024-03-02T05:33:40;9.20;99.90
44843;DHT22;31884;52.538;13.820;2024-03-02T05:36:06;9.20;99.90
44843;DHT22;31884;52.538;13.820;2024-03-02T05:38:34;9.20;99.90
44843;DHT22;31884;52.538;13.820;2024-03-02T05:41:00;9.20;99.90
44843;DHT22;31884;52.538;13.820;2024-03-02T05:43:25;9.30;99.90
44843;DHT22;31884;52.538;13.820;2024-03-02T05:45:51;9.30;99.90
44843;DHT22;31884;52.538;13.820;2024-03-02T05:48:16;9.30;99.90
44843;DHT22;31884;52.538;13.820;2024-03-02T05:50:42;9.30;99.90
44843;DHT22;31884;52.538;13.820;2024-03-02T05:53:07;9.30;99.90
44843;DHT22;31884;52.538;13.820;2024-03-02T05:55:33;9.30;99.90
44843;DHT22;31884;52.538;13.820;2024-03-02T05:57:58;9.30;99.90
44843;DHT22;31884;52.538;13.820;2024-03-02T06:00:24;9.40;99.90
44843;DHT22;31884;52.538;13.820;2024-03-02T06:02:49;9.40;99.90
44843;DHT22;31884;52.538;13.820;2024-03-02T06:05:15;9.30;99.90
44843;DHT22;31884;52.538;13.820;2024-03-02T06:07:41;9.40;99.90
44843;DHT22;31884;52.538;13.820;2024-03-02T06:10:07;9.40;99.90
44843;DHT22;31884;52.538;13.820;2024-03-02T06:12:34;9.40;99.90
44843;DHT22;31884;52.538;13.820;2024-03-02T06:14:59;9.40;99.90
44843;DHT22;31884;52.538;13.820;2024-03-02T06:17:25;9.40;99.90
44843;DHT22;31884;52.538;13.820;2024-03-02T06:19:51;9.40;99.90
44843;DHT22;31884;52.538;13.820;2024-03-02T06:22:16;9.30;99.90
44843;DHT22;31884;52.538;13.820;2024-03-02T06:24:42;9.40;99.90
44843;DHT22;31884;52.538;13.820;2024-03-02T06:27:07;9.30;99.90
44843;DHT22;31884;52.538;13.820;2024-03-02T06:29:33;9.40;99.90
44843;DHT22;31884;52.538;13.820;2024-03-02T06:32:01;9.30;99.90
44843;DHT22;31884;52.538;13.820;2024-03-02T06:34:27;9.40;99.90
44843;DHT22;31884;52.538;13.820;2024-03-02T06:36:52;9.40;99.90
44843;DHT22;31884;52.538;13.820;2024-03-02T06:39:18;9.40;99.90
44843;DHT22;31884;52.538;13.820;2024-03-02T06:41:43;9.40;99.90
44843;DHT22;31884;52.538;13.820;2024-03-02T06:44:09;9.40;99.90
44843;DHT22;31884;52.538;13.820;2024-03-02T06:46:34;9.40;99.90
44843;DHT22;31884;52.538;13.820;2024-03-02T06:49:00;9.40;99.90
44843;DHT22;31884;52.538;13.820;2024-03-02T06:51:27;9.40;99.90
44843;DHT22;31884;52.538;13.820;2024-03-02T06:53:53;9.40;99.90
44843;DHT22;31884;52.538;13.820;2024-03-02T06:56:18;9.40;99.90
44843;DHT22;31884;52.538;13.820;2024-03-02T06:58:44;9.40;99.90
44843;DHT22;31884;52.538;13.820;2024-03-02T07:01:09;9.40;99.90
44843;DHT22;31884;52.538;13.820;2024-03-02T07:03:35;9.40;99.90
44843;DHT22;31884;52.538;13.820;2024-03-02T07:06:00;9.40;99.90
44843;DHT22;31884;52.538;13.820;2024-03-02T07:08:26;9.40;99.90
44843;DHT22;31884;52.538;13.820;2024-03-02T07:10:51;9.40;99.90
44843;DHT22;31884;52.538;13.820;2024-03-02T07:13:17;9.50;99.90
44843;DHT22;31884;52.538;13.820;2024-03-02T07:15:42;9.50;99.90
44843;DHT22;31884;52.538;13.820;2024-03-02T07:18:20;9.60;99.90
44843;DHT22;31884;52.538;13.820;2024-03-02T07:20:45;9.50;99.90
44843;DHT22;31884;52.538;13.820;2024-03-02T07:23:11;9.50;99.90
44843;DHT22;31884;52.538;13.820;2024-03-02T07:25:36;9.50;99.90
44843;DHT22;31884;52.538;13.820;2024-03-02T07:28:02;9.50;99.90
44843;DHT22;31884;52.538;13.820;2024-03-02T07:30:28;9.50;99.90
44843;DHT22;31884;52.538;13.820;2024-03-02T07:32:53;9.50;99.90
44843;DHT22;31884;52.538;13.820;2024-03-02T07:35:19;9.50;99.90
44843;DHT22;31884;52.538;13.820;2024-03-02T07:37:44;9.50;99.90
44843;DHT22;31884;52.538;13.820;2024-03-02T07:40:10;9.50;99.90
44843;DHT22;31884;52.538;13.820;2024-03-02T07:42:40;9.60;99.90
44843;DHT22;31884;52.538;13.820;2024-03-02T07:45:06;9.60;99.90
44843;DHT22;31884;52.538;13.820;2024-03-02T07:47:33;9.60;99.90
44843;DHT22;31884;52.538;13.820;2024-03-02T07:49:59;9.60;99.90
44843;DHT22;31884;52.538;13.820;2024-03-02T07:52:24;9.60;99.90
44843;DHT22;31884;52.538;13.820;2024-03-02T07:54:50;9.60;99.90
44843;DHT22;31884;52.538;13.820;2024-03-02T07:57:16;9.60;99.90
44843;DHT22;31884;52.538;13.820;2024-03-02T07:59:42;9.60;99.90
44843;DHT22;31884;52.538;13.820;2024-03-02T08:02:08;9.60;99.90
44843;DHT22;31884;52.538;13.820;2024-03-02T08:04:34;9.70;99.90
44843;DHT22;31884;52.538;13.820;2024-03-02T08:06:59;9.70;99.90
44843;DHT22;31884;52.538;13.820;2024-03-02T08:09:25;9.70;99.90
44843;DHT22;31884;52.538;13.820;2024-03-02T08:11:51;9.80;99.90
44843;DHT22;31884;52.538;13.820;2024-03-02T08:14:16;9.90;99.90
44843;DHT22;31884;52.538;13.820;2024-03-02T08:16:42;9.90;99.90
44843;DHT22;31884;52.538;13.820;2024-03-02T08:19:07;9.80;99.90
44843;DHT22;31884;52.538;13.820;2024-03-02T08:21:34;9.90;99.90
44843;DHT22;31884;52.538;13.820;2024-03-02T08:24:01;9.90;99.90
44843;DHT22;31884;52.538;13.820;2024-03-02T08:26:27;10.00;99.90
44843;DHT22;31884;52.538;13.820;2024-03-02T08:28:55;10.10;99.90
44843;DHT22;31884;52.538;13.820;2024-03-02T08:31:20;10.20;99.90
44843;DHT22;31884;52.538;13.820;2024-03-02T08:33:46;10.30;99.90
44843;DHT22;31884;52.538;13.820;2024-03-02T08:36:11;10.30;99.90
44843;DHT22;31884;52.538;13.820;2024-03-02T08:38:37;10.40;99.90
44843;DHT22;31884;52.538;13.820;2024-03-02T08:41:03;10.40;99.90
44843;DHT22;31884;52.538;13.820;2024-03-02T08:43:29;10.40;99.90
44843;DHT22;31884;52.538;13.820;2024-03-02T08:45:54;10.40;99.90
44843;DHT22;31884;52.538;13.820;2024-03-02T08:48:20;10.50;99.90
44843;DHT22;31884;52.538;13.820;2024-03-02T08:50:46;10.50;99.90
44843;DHT22;31884;52.538;13.820;2024-03-02T08:53:12;10.70;99.90
44843;DHT22;31884;52.538;13.820;2024-03-02T08:55:37;10.70;99.90
44843;DHT22;31884;52.538;13.820;2024-03-02T08:58:03;10.70;99.90
44843;DHT22;31884;52.538;13.820;2024-03-02T09:00:28;10.80;99.90
44843;DHT22;31884;52.538;13.820;2024-03-02T09:02:54;10.80;99.90
44843;DHT22;31884;52.538;13.820;2024-03-02T09:05:19;10.80;99.90
44843;DHT22;31884;52.538;13.820;2024-03-02T09:07:45;10.80;99.90
44843;DHT22;31884;52.538;13.820;2024-03-02T09:10:10;10.80;99.90
44843;DHT22;31884;52.538;13.820;2024-03-02T09:12:37;10.80;99.90
44843;DHT22;31884;52.538;13.820;2024-03-02T09:15:04;10.80;99.90
44843;DHT22;31884;52.538;13.820;2024-03-02T09:17:29;10.90;99.90
44843;DHT22;31884;52.538;13.820;2024-03-02T09:19:55;11.10;99.90
44843;DHT22;31884;52.538;13.820;2024-03-02T09:22:21;11.20;99.90
44843;DHT22;31884;52.538;13.820;2024-03-02T09:24:47;11.20;99.90
44843;DHT22;31884;52.538;13.820;2024-03-02T09:27:12;11.40;99.90
44843;DHT22;31884;52.538;13.820;2024-03-02T09:29:38;11.50;99.90
44843;DHT22;31884;52.538;13.820;2024-03-02T09:32:05;11.60;99.90
44843;DHT22;31884;52.538;13.820;2024-03-02T09:34:31;11.60;99.90
44843;DHT22;31884;52.538;13.820;2024-03-02T09:36:57;11.60;99.90
44843;DHT22;31884;52.538;13.820;2024-03-02T09:39:23;11.60;99.90
44843;DHT22;31884;52.538;13.820;2024-03-02T09:41:48;11.70;99.90
44843;DHT22;31884;52.538;13.820;2024-03-02T09:44:14;11.70;99.90
44843;DHT22;31884;52.538;13.820;2024-03-02T09:46:40;11.80;99.90
44843;DHT22;31884;52.538;13.820;2024-03-02T09:49:05;11.80;99.90
44843;DHT22;31884;52.538;13.820;2024-03-02T09:51:31;11.90;99.90
44843;DHT22;31884;52.538;13.820;2024-03-02T09:53:57;12.00;99.90
44843;DHT22;31884;52.538;13.820;2024-03-02T09:56:23;12.10;99.90
44843;DHT22;31884;52.538;13.820;2024-03-02T09:58:48;12.20;99.90
44843;DHT22;31884;52.538;13.820;2024-03-02T10:01:14;12.20;99.90
44843;DHT22;31884;52.538;13.820;2024-03-02T10:03:39;12.30;99.90
44843;DHT22;31884;52.538;13.820;2024-03-02T10:06:27;12.30;99.90
44843;DHT22;31884;52.538;13.820;2024-03-02T10:08:54;12.20;99.90
44843;DHT22;31884;52.538;13.820;2024-03-02T10:11:32;12.20;99.90
44843;DHT22;31884;52.538;13.820;2024-03-02T10:14:09;12.10;99.90
44843;DHT22;31884;52.538;13.820;2024-03-02T10:16:36;12.20;99.90
44843;DHT22;31884;52.538;13.820;2024-03-02T10:19:28;12.30;99.90
44843;DHT22;31884;52.538;13.820;2024-03-02T10:21:58;12.40;98.80
44843;DHT22;31884;52.538;13.820;2024-03-02T10:24:24;12.60;98.90
44843;DHT22;31884;52.538;13.820;2024-03-02T10:26:51;12.90;99.20
44843;DHT22;31884;52.538;13.820;2024-03-02T10:29:17;13.10;99.10
44843;DHT22;31884;52.538;13.820;2024-03-02T10:31:44;13.20;98.30
44843;DHT22;31884;52.538;13.820;2024-03-02T10:34:11;13.20;96.40
44843;DHT22;31884;52.538;13.820;2024-03-02T10:36:40;13.20;95.00
44843;DHT22;31884;52.538;13.820;2024-03-02T10:39:07;13.10;93.50
44843;DHT22;31884;52.538;13.820;2024-03-02T10:41:37;13.00;93.20
44843;DHT22;31884;52.538;13.820;2024-03-02T10:44:04;12.90;93.10
44843;DHT22;31884;52.538;13.820;2024-03-02T10:46:32;12.80;93.60
44843;DHT22;31884;52.538;13.820;2024-03-02T10:48:59;12.90;93.60
44843;DHT22;31884;52.538;13.820;2024-03-02T10:51:26;12.90;93.90
44843;DHT22;31884;52.538;13.820;2024-03-02T10:53:53;13.10;94.60
44843;DHT22;31884;52.538;13.820;2024-03-02T10:56:28;13.00;93.20
44843;DHT22;31884;52.538;13.820;2024-03-02T11:01:25;12.90;93.00
44843;DHT22;31884;52.538;13.820;2024-03-02T11:03:51;12.90;93.00
44843;DHT22;31884;52.538;13.820;2024-03-02T11:06:17;12.90;92.10
44843;DHT22;31884;52.538;13.820;2024-03-02T11:08:44;12.90;92.40
44843;DHT22;31884;52.538;13.820;2024-03-02T11:11:16;12.90;92.00
44843;DHT22;31884;52.538;13.820;2024-03-02T11:13:49;13.10;92.30
44843;DHT22;31884;52.538;13.820;2024-03-02T11:16:36;13.20;92.30
44843;DHT22;31884;52.538;13.820;2024-03-02T11:19:04;13.20;90.60
44843;DHT22;31884;52.538;13.820;2024-03-02T11:21:32;13.30;91.50
44843;DHT22;31884;52.538;13.820;2024-03-02T11:23:58;13.30;90.40
44843;DHT22;31884;52.538;13.820;2024-03-02T11:26:24;13.30;90.30
44843;DHT22;31884;52.538;13.820;2024-03-02T11:28:50;13.40;90.00
44843;DHT22;31884;52.538;13.820;2024-03-02T11:31:15;13.30;88.90
44843;DHT22;31884;52.538;13.820;2024-03-02T11:33:41;13.40;88.00
44843;DHT22;31884;52.538;13.820;2024-03-02T11:36:07;13.30;87.30
44843;DHT22;31884;52.538;13.820;2024-03-02T11:38:34;13.30;87.50
44843;DHT22;31884;52.538;13.820;2024-03-02T11:41:01;13.40;87.40
44843;DHT22;31884;52.538;13.820;2024-03-02T11:43:30;13.40;86.90
44843;DHT22;31884;52.538;13.820;2024-03-02T11:46:05;13.50;88.00
44843;DHT22;31884;52.538;13.820;2024-03-02T11:48:32;13.60;85.60
44843;DHT22;31884;52.538;13.820;2024-03-02T11:51:00;13.50;85.70
44843;DHT22;31884;52.538;13.820;2024-03-02T11:53:27;13.60;86.30
44843;DHT22;31884;52.538;13.820;2024-03-02T11:55:55;13.80;87.50
44843;DHT22;31884;52.538;13.820;2024-03-02T11:58:20;14.00;86.20
44843;DHT22;31884;52.538;13.820;2024-03-02T12:00:53;14.00;86.20
44843;DHT22;31884;52.538;13.820;2024-03-02T12:03:23;14.20;86.30
44843;DHT22;31884;52.538;13.820;2024-03-02T12:05:51;14.10;84.90
44843;DHT22;31884;52.538;13.820;2024-03-02T12:08:16;14.00;84.20
44843;DHT22;31884;52.538;13.820;2024-03-02T12:10:42;14.00;85.00
44843;DHT22;31884;52.538;13.820;2024-03-02T12:13:10;14.10;84.60
44843;DHT22;31884;52.538;13.820;2024-03-02T12:15:37;14.10;84.40
44843;DHT22;31884;52.538;13.820;2024-03-02T12:18:03;14.20;84.10
44843;DHT22;31884;52.538;13.820;2024-03-02T12:20:31;14.20;84.20
44843;DHT22;31884;52.538;13.820;2024-03-02T12:23:02;14.40;84.00
44843;DHT22;31884;52.538;13.820;2024-03-02T12:25:28;14.30;83.40
44843;DHT22;31884;52.538;13.820;2024-03-02T12:27:56;14.40;83.60
44843;DHT22;31884;52.538;13.820;2024-03-02T12:30:22;14.50;83.60
44843;DHT22;31884;52.538;13.820;2024-03-02T12:32:48;14.50;81.50
44843;DHT22;31884;52.538;13.820;2024-03-02T12:35:14;14.30;81.00
44843;DHT22;31884;52.538;13.820;2024-03-02T12:37:51;14.30;80.30
44843;DHT22;31884;52.538;13.820;2024-03-02T12:40:18;14.20;79.80
44843;DHT22;31884;52.538;13.820;2024-03-02T12:42:45;14.30;80.40
44843;DHT22;31884;52.538;13.820;2024-03-02T12:45:12;14.20;79.30
44843;DHT22;31884;52.538;13.820;2024-03-02T12:47:40;14.20;78.60
44843;DHT22;31884;52.538;13.820;2024-03-02T12:50:06;14.00;78.90
44843;DHT22;31884;52.538;13.820;2024-03-02T12:52:32;14.10;80.00
44843;DHT22;31884;52.538;13.820;2024-03-02T12:55:02;14.10;79.90
44843;DHT22;31884;52.538;13.820;2024-03-02T12:57:30;14.10;80.00
44843;DHT22;31884;52.538;13.820;2024-03-02T12:59:59;14.10;79.90
44843;DHT22;31884;52.538;13.820;2024-03-02T13:02:30;14.00;79.50
44843;DHT22;31884;52.538;13.820;2024-03-02T13:04:58;13.90;79.10
44843;DHT22;31884;52.538;13.820;2024-03-02T13:07:24;13.80;79.70
44843;DHT22;31884;52.538;13.820;2024-03-02T13:09:50;13.90;80.10
44843;DHT22;31884;52.538;13.820;2024-03-02T13:12:17;13.80;79.90
44843;DHT22;31884;52.538;13.820;2024-03-02T13:14:43;13.70;79.40
44843;DHT22;31884;52.538;13.820;2024-03-02T13:17:09;13.70;80.10
44843;DHT22;31884;52.538;13.820;2024-03-02T13:19:35;13.70;80.40
44843;DHT22;31884;52.538;13.820;2024-03-02T13:22:00;13.60;79.80
44843;DHT22;31884;52.538;13.820;2024-03-02T13:24:29;13.50;80.20
44843;DHT22;31884;52.538;13.820;2024-03-02T13:26:55;13.40;79.90
44843;DHT22;31884;52.538;13.820;2024-03-02T13:29:22;13.30;80.00
44843;DHT22;31884;52.538;13.820;2024-03-02T13:31:48;13.30;80.00
44843;DHT22;31884;52.538;13.820;2024-03-02T13:34:14;13.30;80.40
44843;DHT22;31884;52.538;13.820;2024-03-02T13:36:39;13.40;80.50
44843;DHT22;31884;52.538;13.820;2024-03-02T13:39:05;13.30;80.70
44843;DHT22;31884;52.538;13.820;2024-03-02T13:41:31;13.20;81.00
44843;DHT22;31884;52.538;13.820;2024-03-02T13:43:57;13.20;81.30
44843;DHT22;31884;52.538;13.820;2024-03-02T13:46:26;13.20;82.40
44843;DHT22;31884;52.538;13.820;2024-03-02T13:48:51;13.10;81.90
44843;DHT22;31884;52.538;13.820;2024-03-02T13:51:17;13.10;81.70
44843;DHT22;31884;52.538;13.820;2024-03-02T13:53:42;13.00;81.60
44843;DHT22;31884;52.538;13.820;2024-03-02T13:56:08;13.00;81.60
44843;DHT22;31884;52.538;13.820;2024-03-02T13:58:34;12.90;80.80
44843;DHT22;31884;52.538;13.820;2024-03-02T14:00:59;12.90;81.10
44843;DHT22;31884;52.538;13.820;2024-03-02T14:03:26;12.80;81.40
44843;DHT22;31884;52.538;13.820;2024-03-02T14:05:53;12.80;81.80
44843;DHT22;31884;52.538;13.820;2024-03-02T14:08:18;12.80;81.80
44843;DHT22;31884;52.538;13.820;2024-03-02T14:10:44;12.70;82.00
44843;DHT22;31884;52.538;13.820;2024-03-02T14:13:09;12.70;82.40
44843;DHT22;31884;52.538;13.820;2024-03-02T14:15:35;12.60;82.30
44843;DHT22;31884;52.538;13.820;2024-03-02T14:18:04;12.60;82.80
44843;DHT22;31884;52.538;13.820;2024-03-02T14:20:29;12.60;83.10
44843;DHT22;31884;52.538;13.820;2024-03-02T14:22:55;12.60;83.50
44843;DHT22;31884;52.538;13.820;2024-03-02T14:25:20;12.50;83.50
44843;DHT22;31884;52.538;13.820;2024-03-02T14:27:46;12.50;83.50
44843;DHT22;31884;52.538;13.820;2024-03-02T14:30:12;12.50;83.70
44843;DHT22;31884;52.538;13.820;2024-03-02T14:32:38;12.50;83.70
44843;DHT22;31884;52.538;13.820;2024-03-02T14:35:04;12.50;83.30
44843;DHT22;31884;52.538;13.820;2024-03-02T14:37:29;12.50;83.10
44843;DHT22;31884;52.538;13.820;2024-03-02T14:39:55;12.50;82.50
44843;DHT22;31884;52.538;13.820;2024-03-02T14:42:22;12.50;81.50
44843;DHT22;31884;52.538;13.820;2024-03-02T14:44:47;12.50;81.40
44843;DHT22;31884;52.538;13.820;2024-03-02T14:47:13;12.50;81.70
44843;DHT22;31884;52.538;13.820;2024-03-02T14:49:38;12.50;82.00
44843;DHT22;31884;52.538;13.820;2024-03-02T14:52:06;12.50;81.90
44843;DHT22;31884;52.538;13.820;2024-03-02T14:54:32;12.60;82.10
44843;DHT22;31884;52.538;13.820;2024-03-02T14:56:57;12.60;82.40
44843;DHT22;31884;52.538;13.820;2024-03-02T14:59:23;12.60;82.60
44843;DHT22;31884;52.538;13.820;2024-03-02T15:01:48;12.70;82.90
44843;DHT22;31884;52.538;13.820;2024-03-02T15:04:14;12.80;82.90
44843;DHT22;31884;52.538;13.820;2024-03-02T15:06:42;12.80;83.10
44843;DHT22;31884;52.538;13.820;2024-03-02T15:09:07;12.90;83.00
44843;DHT22;31884;52.538;13.820;2024-03-02T15:11:33;13.00;83.00
44843;DHT22;31884;52.538;13.820;2024-03-02T15:13:59;13.00;82.90
44843;DHT22;31884;52.538;13.820;2024-03-02T15:16:24;13.00;82.00
44843;DHT22;31884;52.538;13.820;2024-03-02T15:18:50;13.00;81.70
44843;DHT22;31884;52.538;13.820;2024-03-02T15:21:15;12.90;81.20
44843;DHT22;31884;52.538;13.820;2024-03-02T15:23:41;12.90;81.50
44843;DHT22;31884;52.538;13.820;2024-03-02T15:26:06;12.90;81.70